createdAt,value
2022-12-01T07:26:01.438Z,95470.16
2022-12-01T07:27:59.737Z,95464.03
2022-12-01T07:29:57.997Z,95467.63
2022-12-01T07:31:58.687Z,95471.50
2022-12-01T07:33:56.954Z,95462.56
2022-12-01T07:35:55.636Z,95465.06
2022-12-01T07:37:55.961Z,95463.16
2022-12-01T07:39:56.350Z,95465.06
2022-12-01T07:41:56.110Z,95466.00
2022-12-01T07:43:54.240Z,95466.13
2022-12-01T07:45:52.773Z,95471.94
2022-12-01T07:47:54.741Z,95465.53
2022-12-01T07:49:53.510Z,95464.88
2022-12-01T07:51:51.968Z,95468.03
2022-12-01T07:53:54.906Z,95459.53
2022-12-01T07:55:53.122Z,95460.47
2022-12-01T07:57:53.540Z,95467.47
2022-12-01T07:59:53.117Z,95468.16
2022-12-01T08:01:51.308Z,95467.78
2022-12-01T08:03:50.571Z,95472.78
2022-12-01T08:05:57.765Z,95467.34
2022-12-01T08:07:56.081Z,95472.41
2022-12-01T08:09:54.456Z,95464.47
2022-12-01T08:11:52.752Z,95463.38
2022-12-01T08:13:53.430Z,95463.63
2022-12-01T08:15:51.692Z,95463.31
2022-12-01T08:17:50.003Z,95460.56
2022-12-01T08:19:48.562Z,95459.81
2022-12-01T08:21:47.096Z,95461.34
2022-12-01T08:23:45.608Z,95463.84
2022-12-01T08:25:43.942Z,95468.78
2022-12-01T08:27:42.215Z,95468.59
2022-12-01T08:29:41.915Z,95468.50
2022-12-01T08:31:40.414Z,95469.03
2022-12-01T08:33:43.932Z,95467.41
2022-12-01T08:35:42.337Z,95481.03
2022-12-01T08:37:40.664Z,95469.13
2022-12-01T08:39:39.084Z,95470.94
2022-12-01T08:41:37.357Z,95466.53
2022-12-01T08:46:02.062Z,95462.91
2022-12-01T08:48:00.574Z,95473.38
2022-12-01T08:49:58.979Z,95465.84
2022-12-01T08:51:57.412Z,95463.31
2022-12-01T08:53:57.790Z,95459.47
2022-12-01T08:55:56.115Z,95463.00
2022-12-01T08:57:54.512Z,95461.00
2022-12-01T08:59:52.720Z,95452.91
2022-12-01T09:01:57.534Z,95453.88
2022-12-01T09:04:07.714Z,95457.16
2022-12-01T09:06:07.335Z,95464.22
2022-12-01T09:08:26.467Z,95448.16
2022-12-01T09:10:24.695Z,95450.91
2022-12-01T09:12:23.514Z,95452.53
2022-12-01T09:14:23.332Z,95448.84
2022-12-01T09:16:21.715Z,95445.25
2022-12-01T09:18:21.641Z,95448.28
2022-12-01T09:20:19.834Z,95445.25
2022-12-01T09:22:18.378Z,95436.47
2022-12-01T09:26:39.006Z,95439.31
2022-12-01T09:28:40.619Z,95435.13
2022-12-01T09:30:39.507Z,95435.38
2022-12-01T09:32:38.521Z,95436.22
2022-12-01T09:34:38.497Z,95441.47
2022-12-01T09:37:05.625Z,95431.94
2022-12-01T09:39:59.207Z,95436.94
2022-12-01T09:42:08.850Z,95430.59
2022-12-01T09:44:20.852Z,95430.66
2022-12-01T09:46:27.488Z,95429.63
2022-12-01T09:48:30.070Z,95429.63
2022-12-01T09:50:30.929Z,95420.06
2022-12-01T09:52:35.669Z,95421.88
2022-12-01T09:54:35.810Z,95425.56
2022-12-01T09:56:41.639Z,95416.63
2022-12-01T09:58:40.570Z,95415.59
2022-12-01T10:00:44.330Z,95421.41
2022-12-01T10:02:45.365Z,95420.16
2022-12-01T10:04:48.581Z,95408.84
2022-12-01T10:06:54.974Z,95413.94
2022-12-01T10:09:04.396Z,95406.38
2022-12-01T10:11:09.361Z,95408.50
2022-12-01T10:13:17.622Z,95409.84
2022-12-01T10:15:23.769Z,95408.94
2022-12-01T10:17:32.526Z,95406.56
2022-12-01T10:19:38.374Z,95408.81
2022-12-01T10:21:54.037Z,95407.22
2022-12-01T10:24:12.914Z,95407.88
2022-12-01T10:26:15.463Z,95402.75
2022-12-01T10:28:30.933Z,95412.47
2022-12-01T10:30:29.648Z,95406.81
2022-12-01T10:32:36.879Z,95403.47
2022-12-01T10:34:37.716Z,95405.66
2022-12-01T10:36:36.304Z,95402.88
2022-12-01T10:38:39.275Z,95400.88
2022-12-01T10:40:39.638Z,95404.31
2022-12-01T10:42:41.271Z,95403.88
2022-12-01T10:44:40.368Z,95403.44
2022-12-01T10:46:44.811Z,95403.63
2022-12-01T10:48:54.910Z,95408.06
2022-12-01T10:50:54.832Z,95395.81
2022-12-01T10:52:53.219Z,95401.19
2022-12-01T10:54:52.755Z,95399.25
2022-12-01T10:56:56.757Z,95405.28
2022-12-01T10:58:58.356Z,95399.47
2022-12-01T11:01:00.950Z,95393.69
2022-12-01T11:02:59.911Z,95397.06
2022-12-01T11:07:58.159Z,95395.72
2022-12-01T11:10:20.016Z,95405.03
2022-12-01T11:12:23.953Z,95392.34
2022-12-01T11:14:25.844Z,95389.84
2022-12-01T11:16:53.058Z,95387.56
2022-12-01T11:19:27.984Z,95385.13
2022-12-01T11:21:36.503Z,95393.16
2022-12-01T11:23:45.753Z,95385.38
2022-12-01T11:25:59.664Z,95394.84
2022-12-01T11:28:02.211Z,95388.22
2022-12-01T11:30:06.447Z,95387.44
2022-12-01T11:32:17.903Z,95387.53
2022-12-01T11:34:21.161Z,95384.06
2022-12-01T11:36:35.178Z,95391.19
2022-12-01T11:38:38.422Z,95391.38
2022-12-01T11:40:49.435Z,95383.63
2022-12-01T11:42:59.745Z,95393.31
2022-12-01T11:45:07.665Z,95386.47
2022-12-01T11:51:12.603Z,95389.03
2022-12-01T11:53:29.504Z,95384.84
2022-12-01T11:55:30.074Z,95383.59
2022-12-01T11:57:34.566Z,95384.72
2022-12-01T11:59:35.371Z,95384.81
2022-12-01T12:01:51.913Z,95386.19
2022-12-01T12:04:00.388Z,95389.88
2022-12-01T12:08:42.158Z,95392.84
2022-12-01T12:10:49.291Z,95390.63
2022-12-01T12:13:04.911Z,95390.63
2022-12-01T12:15:18.470Z,95381.25
2022-12-01T12:17:26.380Z,95390.03
2022-12-01T12:20:00.342Z,95391.09
2022-12-01T12:22:18.644Z,95393.94
2022-12-01T12:24:37.848Z,95392.16
2022-12-01T12:26:44.025Z,95399.94
2022-12-01T12:28:59.702Z,95392.16
2022-12-01T12:31:14.817Z,95393.16
2022-12-01T12:33:30.860Z,95385.38
2022-12-01T12:35:38.607Z,95389.72
2022-12-01T12:37:48.163Z,95396.97
2022-12-01T12:40:01.110Z,95398.63
2022-12-01T12:42:00.718Z,95394.50
2022-12-01T12:44:12.214Z,95402.38
2022-12-01T12:46:15.282Z,95406.78
2022-12-01T12:48:29.143Z,95400.63
2022-12-01T12:50:38.443Z,95399.84
2022-12-01T12:52:41.933Z,95406.75
2022-12-01T12:54:48.313Z,95400.78
2022-12-01T12:56:50.683Z,95411.25
2022-12-01T12:58:56.673Z,95400.22
2022-12-01T13:00:59.028Z,95410.69
2022-12-01T13:03:06.097Z,95404.59
2022-12-01T13:05:16.238Z,95407.25
2022-12-01T13:07:34.058Z,95402.75
2022-12-01T13:09:39.960Z,95414.13
2022-12-01T13:11:45.355Z,95407.41
2022-12-01T13:13:52.812Z,95408.69
2022-12-01T13:15:53.945Z,95404.66
2022-12-01T13:17:56.331Z,95402.16
2022-12-01T13:19:56.032Z,95407.56
2022-12-01T13:21:56.197Z,95413.84
2022-12-01T13:23:54.915Z,95408.31
2022-12-01T13:25:56.322Z,95412.28
2022-12-01T13:27:56.323Z,95408.91
2022-12-01T13:29:57.190Z,95416.97
2022-12-01T13:31:56.247Z,95415.50
2022-12-01T13:34:00.872Z,95412.91
2022-12-01T13:36:37.979Z,95415.66
2022-12-01T13:38:26.169Z,95414.13
2022-12-01T13:40:28.521Z,95414.03
2022-12-01T13:42:31.994Z,95407.25
2022-12-01T13:44:34.916Z,95418.34
2022-12-01T13:46:50.766Z,95420.00
2022-12-01T13:48:54.073Z,95415.78
2022-12-01T13:50:57.994Z,95421.81
2022-12-01T13:53:12.048Z,95416.56
2022-12-01T13:55:28.098Z,95419.91
2022-12-01T13:57:28.586Z,95413.16
2022-12-01T13:59:55.639Z,95411.53
2022-12-01T14:02:14.579Z,95416.75
2022-12-01T14:04:39.597Z,95417.53
2022-12-01T14:06:46.411Z,95411.44
2022-12-01T14:08:50.241Z,95415.75
2022-12-01T14:10:55.346Z,95416.25
2022-12-01T14:12:57.379Z,95417.19
2022-12-01T14:15:01.291Z,95409.50
2022-12-01T14:17:02.626Z,95410.47
2022-12-01T14:19:01.102Z,95420.00
2022-12-01T14:21:00.571Z,95410.84
2022-12-01T14:23:15.291Z,95413.44
2022-12-01T14:25:26.944Z,95413.69
2022-12-01T14:27:38.808Z,95416.38
2022-12-01T14:29:39.004Z,95425.03
2022-12-01T14:32:19.320Z,95418.88
2022-12-01T14:34:20.057Z,95417.25
2022-12-01T14:36:41.379Z,95424.19
2022-12-01T14:38:48.439Z,95426.94
2022-12-01T14:40:48.939Z,95422.63
2022-12-01T14:43:21.253Z,95420.22
2022-12-01T14:45:27.971Z,95429.13
2022-12-01T14:47:41.968Z,95433.47
2022-12-01T14:49:48.911Z,95434.38
2022-12-01T14:51:55.344Z,95448.38
2022-12-01T14:53:53.882Z,95451.25
2022-12-01T14:55:57.561Z,95442.69
2022-12-01T14:58:05.174Z,95447.03
2022-12-01T15:00:07.497Z,95450.59
2022-12-01T15:02:09.971Z,95448.94
2022-12-01T15:04:08.692Z,95454.94
2022-12-01T15:06:07.687Z,95452.44
2022-12-01T15:08:40.799Z,95453.16
2022-12-01T15:10:35.692Z,95453.84
2022-12-01T15:12:35.538Z,95453.84
2022-12-01T15:14:36.193Z,95449.56
2022-12-01T15:16:43.378Z,95443.53
2022-12-01T15:18:41.822Z,95447.75
2022-12-01T15:20:46.359Z,95454.56
2022-12-01T15:22:46.052Z,95445.91
2022-12-01T15:24:45.742Z,95450.47
2022-12-01T15:26:48.431Z,95447.47
2022-12-01T15:28:48.179Z,95443.00
2022-12-01T15:30:49.456Z,95445.78
2022-12-01T15:32:47.984Z,95446.28
2022-12-01T15:34:48.360Z,95456.66
2022-12-01T15:36:48.417Z,95449.41
2022-12-01T15:38:49.229Z,95446.63
2022-12-01T15:43:15.838Z,95449.50
2022-12-01T15:45:20.493Z,95446.34
2022-12-01T15:47:43.478Z,95441.88
2022-12-01T15:49:50.413Z,95448.81
2022-12-01T15:51:52.064Z,95452.22
2022-12-01T15:53:53.839Z,95454.06
2022-12-01T15:55:58.587Z,95452.38
2022-12-01T15:57:57.964Z,95466.31
2022-12-01T15:59:58.476Z,95457.91
2022-12-01T16:01:58.624Z,95458.88
2022-12-01T16:03:59.555Z,95456.94
2022-12-01T16:05:59.106Z,95450.22
2022-12-01T16:08:13.882Z,95463.16
2022-12-01T16:10:26.013Z,95458.94
2022-12-01T16:12:25.931Z,95454.69
2022-12-01T16:14:26.069Z,95450.13
2022-12-01T16:16:39.620Z,95453.56
2022-12-01T16:18:39.241Z,95454.47
2022-12-01T16:20:43.646Z,95456.94
2022-12-01T16:22:45.647Z,95469.75
2022-12-01T16:24:48.071Z,95467.16
2022-12-01T16:26:51.715Z,95461.06
2022-12-01T16:28:49.890Z,95464.56
2022-12-01T16:30:48.632Z,95473.22
2022-12-01T16:32:49.399Z,95464.47
2022-12-01T16:34:49.327Z,95459.31
2022-12-01T16:36:47.732Z,95461.06
2022-12-01T16:38:46.013Z,95464.34
2022-12-01T16:40:44.874Z,95461.69
2022-12-01T16:42:43.048Z,95463.16
2022-12-01T16:44:41.908Z,95462.31
2022-12-01T16:46:40.614Z,95458.94
2022-12-01T16:48:38.963Z,95470.03
2022-12-01T16:50:39.303Z,95468.47
2022-12-01T16:52:45.745Z,95469.97
2022-12-01T16:54:44.405Z,95466.47
2022-12-01T16:56:42.923Z,95469.66
2022-12-01T16:58:41.390Z,95468.78
2022-12-01T17:00:39.482Z,95466.09
2022-12-01T17:02:37.978Z,95471.28
2022-12-01T17:04:36.341Z,95468.59
2022-12-01T17:06:36.204Z,95472.97
2022-12-01T17:08:35.317Z,95472.81
2022-12-01T17:10:33.585Z,95479.19
2022-12-01T17:12:32.048Z,95470.28
2022-12-01T17:14:30.470Z,95475.06
2022-12-01T17:16:28.710Z,95476.78
2022-12-01T17:18:28.215Z,95477.16
2022-12-01T17:20:26.494Z,95475.38
2022-12-01T17:22:26.028Z,95477.22
2022-12-01T17:24:26.051Z,95480.94
2022-12-01T17:26:24.699Z,95483.75
2022-12-01T17:28:23.224Z,95491.44
2022-12-01T17:30:26.875Z,95487.31
2022-12-01T17:32:25.196Z,95491.25
2022-12-01T17:34:27.251Z,95486.69
2022-12-01T17:36:25.357Z,95479.81
2022-12-01T17:38:25.047Z,95477.28
2022-12-01T17:40:23.528Z,95488.56
2022-12-01T17:42:21.995Z,95490.47
2022-12-01T17:44:20.271Z,95490.34
2022-12-01T17:46:18.880Z,95486.06
2022-12-01T17:48:17.366Z,95487.75
2022-12-01T17:50:16.016Z,95488.56
2022-12-01T17:52:14.303Z,95484.38
2022-12-01T17:54:14.138Z,95482.66
2022-12-01T17:56:14.771Z,95500.16
2022-12-01T17:58:13.228Z,95494.97
2022-12-01T18:00:12.892Z,95488.03
2022-12-01T18:02:13.657Z,95482.97
2022-12-01T18:04:11.900Z,95489.06
2022-12-01T18:06:10.686Z,95489.84
2022-12-01T18:08:09.005Z,95490.56
2022-12-01T18:10:20.444Z,95493.97
2022-12-01T18:12:26.230Z,95487.97
2022-12-01T18:14:25.552Z,95486.25
2022-12-01T18:16:27.164Z,95489.84
2022-12-01T18:18:25.791Z,95490.75
2022-12-01T18:20:24.093Z,95487.13
2022-12-01T18:22:22.645Z,95491.53
2022-12-01T18:24:20.843Z,95487.19
2022-12-01T18:26:22.356Z,95490.59
2022-12-01T18:28:20.680Z,95493.16
2022-12-01T18:30:18.980Z,95484.44
2022-12-01T18:32:17.499Z,95491.31
2022-12-01T18:34:16.167Z,95483.66
2022-12-01T18:36:16.486Z,95496.50
2022-12-01T18:38:15.833Z,95494.81
2022-12-01T18:40:14.828Z,95497.28
2022-12-01T18:42:14.713Z,95504.22
2022-12-01T18:44:12.999Z,95502.59
2022-12-01T18:46:12.393Z,95501.53
2022-12-01T18:48:11.707Z,95497.34
2022-12-01T18:50:10.830Z,95503.31
2022-12-01T18:52:09.058Z,95509.28
2022-12-01T18:54:09.200Z,95503.31
2022-12-01T18:56:11.773Z,95500.50
2022-12-01T18:58:12.034Z,95504.63
2022-12-01T19:00:11.609Z,95514.00
2022-12-01T19:02:11.527Z,95500.59
2022-12-01T19:04:10.782Z,95507.69
2022-12-01T19:06:10.033Z,95506.16
2022-12-01T19:08:08.697Z,95518.34
2022-12-01T19:10:09.705Z,95512.53
2022-12-01T19:12:08.513Z,95515.91
2022-12-01T19:14:08.518Z,95524.66
2022-12-01T19:16:08.157Z,95524.31
2022-12-01T19:18:09.005Z,95524.75
2022-12-01T19:20:08.844Z,95527.91
2022-12-01T19:22:07.231Z,95521.44
2022-12-01T19:24:06.518Z,95525.09
2022-12-01T19:26:06.236Z,95529.50
2022-12-01T19:28:05.417Z,95526.34
2022-12-01T19:30:09.388Z,95533.38
2022-12-01T19:32:08.338Z,95531.75
2022-12-01T19:34:07.421Z,95537.06
2022-12-01T19:36:07.090Z,95534.34
2022-12-01T19:38:05.376Z,95534.41
2022-12-01T19:40:03.720Z,95538.81
2022-12-01T19:42:02.102Z,95537.13
2022-12-01T19:44:00.357Z,95534.47
2022-12-01T19:46:04.889Z,95538.06
2022-12-01T19:48:04.200Z,95540.31
2022-12-01T19:50:02.813Z,95540.91
2022-12-01T19:52:00.975Z,95535.75
2022-12-01T19:53:59.635Z,95528.25
2022-12-01T19:56:02.254Z,95543.09
2022-12-01T19:58:00.623Z,95543.72
2022-12-01T19:59:58.929Z,95539.59
2022-12-01T20:01:58.725Z,95543.19
2022-12-01T20:03:57.217Z,95542.50
2022-12-01T20:05:55.499Z,95545.56
2022-12-01T20:07:53.947Z,95541.41
2022-12-01T20:09:52.247Z,95543.50
2022-12-01T20:11:52.295Z,95547.94
2022-12-01T20:13:51.502Z,95545.41
2022-12-01T20:15:49.728Z,95549.75
2022-12-01T20:17:50.359Z,95542.06
2022-12-01T20:19:48.567Z,95545.53
2022-12-01T20:21:46.842Z,95545.47
2022-12-01T20:23:46.116Z,95548.00
2022-12-01T20:25:44.348Z,95544.44
2022-12-01T20:27:44.977Z,95547.03
2022-12-01T20:29:43.402Z,95554.81
2022-12-01T20:31:42.992Z,95546.06
2022-12-01T20:33:43.819Z,95550.06
2022-12-01T20:35:42.136Z,95556.22
2022-12-01T20:37:40.509Z,95555.63
2022-12-01T20:39:41.521Z,95553.41
2022-12-01T20:41:41.418Z,95553.44
2022-12-01T20:43:42.029Z,95558.84
2022-12-01T20:45:40.244Z,95562.22
2022-12-01T20:47:38.595Z,95567.44
2022-12-01T20:49:38.066Z,95570.25
2022-12-01T20:51:36.384Z,95573.81
2022-12-01T20:53:34.861Z,95572.06
2022-12-01T20:55:32.949Z,95568.44
2022-12-01T20:57:31.383Z,95566.47
2022-12-01T20:59:30.978Z,95578.47
2022-12-01T21:01:29.428Z,95568.94
2022-12-01T21:03:27.909Z,95568.94
2022-12-01T21:05:28.217Z,95568.25
2022-12-01T21:07:26.666Z,95579.44
2022-12-01T21:09:25.039Z,95583.66
2022-12-01T21:11:46.670Z,95585.25
2022-12-01T21:13:44.175Z,95582.97
2022-12-01T21:15:50.474Z,95584.63
2022-12-01T21:17:54.051Z,95580.38
2022-12-01T21:19:57.864Z,95587.31
2022-12-01T21:21:57.888Z,95591.50
2022-12-01T21:24:11.077Z,95584.38
2022-12-01T21:26:15.231Z,95590.66
2022-12-01T21:28:19.624Z,95595.69
2022-12-01T21:30:20.491Z,95594.03
2022-12-01T21:32:20.436Z,95600.06
2022-12-01T21:34:21.764Z,95597.50
2022-12-01T21:36:25.194Z,95607.81
2022-12-01T21:38:27.183Z,95593.31
2022-12-01T21:40:27.317Z,95600.19
2022-12-01T21:42:28.235Z,95606.47
2022-12-01T21:44:34.082Z,95607.47
2022-12-01T21:46:32.728Z,95601.63
2022-12-01T21:48:36.886Z,95609.13
2022-12-01T21:50:35.289Z,95611.81
2022-12-01T21:52:40.463Z,95605.00
2022-12-01T21:54:44.836Z,95614.56
2022-12-01T21:56:59.324Z,95607.72
2022-12-01T21:59:00.439Z,95605.97
2022-12-01T22:01:00.217Z,95604.16
2022-12-01T22:03:36.322Z,95607.59
2022-12-01T22:06:06.868Z,95604.19
2022-12-01T22:08:18.695Z,95604.28
2022-12-01T22:10:47.019Z,95609.53
2022-12-01T22:12:46.771Z,95615.22
2022-12-01T22:14:45.115Z,95606.41
2022-12-01T22:16:45.232Z,95606.78
2022-12-01T22:18:46.513Z,95604.06
2022-12-01T22:20:44.908Z,95603.94
2022-12-01T22:22:43.367Z,95604.19
2022-12-01T22:24:43.667Z,95610.69
2022-12-01T22:26:47.787Z,95601.97
2022-12-01T22:28:50.493Z,95612.19
2022-12-01T22:30:52.074Z,95608.91
2022-12-01T22:32:57.216Z,95606.34
2022-12-01T22:34:59.059Z,95597.84
2022-12-01T22:36:57.874Z,95596.25
2022-12-01T22:38:56.689Z,95604.91
2022-12-01T22:40:59.985Z,95597.84
2022-12-01T22:43:01.532Z,95605.69
2022-12-01T22:45:10.277Z,95597.00
2022-12-01T22:47:13.430Z,95604.06
2022-12-01T22:49:22.289Z,95599.81
2022-12-01T22:51:40.906Z,95595.66
2022-12-01T22:53:39.306Z,95600.56
2022-12-01T22:55:37.524Z,95594.75
2022-12-01T22:57:37.310Z,95585.44
2022-12-01T22:59:45.338Z,95596.75
2022-12-01T23:01:50.413Z,95595.16
2022-12-01T23:03:49.573Z,95590.03
2022-12-01T23:05:54.691Z,95587.53
2022-12-01T23:07:54.134Z,95591.00
2022-12-01T23:09:52.575Z,95588.47
2022-12-01T23:11:53.536Z,95587.66
2022-12-01T23:13:51.849Z,95591.00
2022-12-01T23:15:51.877Z,95581.63
2022-12-01T23:17:52.719Z,95596.34
2022-12-01T23:19:53.331Z,95591.88
2022-12-01T23:21:53.588Z,95595.28
2022-12-01T23:23:51.966Z,95593.66
2022-12-01T23:25:51.781Z,95589.31
2022-12-01T23:27:51.797Z,95595.47
2022-12-01T23:29:50.034Z,95592.13
2022-12-01T23:31:49.383Z,95589.44
2022-12-01T23:33:49.243Z,95591.16
2022-12-01T23:35:52.181Z,95592.88
2022-12-01T23:37:50.558Z,95592.97
2022-12-01T23:39:49.079Z,95605.00
2022-12-01T23:41:49.781Z,95593.75
2022-12-01T23:43:48.213Z,95599.88
2022-12-01T23:45:47.111Z,95595.41
2022-12-01T23:47:45.377Z,95602.41
2022-12-01T23:49:46.492Z,95594.75
2022-12-01T23:51:48.100Z,95601.78
2022-12-01T23:53:47.397Z,95603.44
2022-12-01T23:55:45.727Z,95602.69
2022-12-01T23:57:44.632Z,95591.41
2022-12-01T23:59:43.631Z,95599.94
